sensor_id;sensor_type;location;lat;lon;timestamp;temperature;humidity
13992;DHT22;7070;53.586;9.692;2023-08-06T00:00:42;16.30;73.60
13992;DHT22;7070;53.586;9.692;2023-08-06T00:03:09;16.30;73.60
13992;DHT22;7070;53.586;9.692;2023-08-06T00:05:36;16.30;73.70
13992;DHT22;7070;53.586;9.692;2023-08-06T00:08:03;16.20;73.70
13992;DHT22;7070;53.586;9.692;2023-08-06T00:10:31;16.20;73.90
13992;DHT22;7070;53.586;9.692;2023-08-06T00:12:58;16.20;74.60
13992;DHT22;7070;53.586;9.692;2023-08-06T00:15:25;16.20;74.00
13992;DHT22;7070;53.586;9.692;2023-08-06T00:17:52;16.10;74.00
13992;DHT22;7070;53.586;9.692;2023-08-06T00:20:19;16.10;74.20
13992;DHT22;7070;53.586;9.692;2023-08-06T00:22:46;16.10;74.30
13992;DHT22;7070;53.586;9.692;2023-08-06T00:25:13;16.10;74.40
13992;DHT22;7070;53.586;9.692;2023-08-06T00:27:41;16.10;74.60
13992;DHT22;7070;53.586;9.692;2023-08-06T00:30:08;16.10;74.60
13992;DHT22;7070;53.586;9.692;2023-08-06T00:32:35;16.10;74.60
13992;DHT22;7070;53.586;9.692;2023-08-06T00:35:02;16.10;74.50
13992;DHT22;7070;53.586;9.692;2023-08-06T00:37:30;16.20;74.80
13992;DHT22;7070;53.586;9.692;2023-08-06T00:39:56;16.10;74.70
13992;DHT22;7070;53.586;9.692;2023-08-06T00:42:23;16.10;74.80
13992;DHT22;7070;53.586;9.692;2023-08-06T00:44:51;16.00;74.60
13992;DHT22;7070;53.586;9.692;2023-08-06T00:47:18;16.00;74.80
13992;DHT22;7070;53.586;9.692;2023-08-06T00:49:45;16.00;75.00
13992;DHT22;7070;53.586;9.692;2023-08-06T00:52:12;16.00;75.00
13992;DHT22;7070;53.586;9.692;2023-08-06T00:54:39;16.00;75.10
13992;DHT22;7070;53.586;9.692;2023-08-06T00:57:07;15.90;75.10
13992;DHT22;7070;53.586;9.692;2023-08-06T00:59:34;15.90;75.10
13992;DHT22;7070;53.586;9.692;2023-08-06T01:02:03;15.90;75.20
13992;DHT22;7070;53.586;9.692;2023-08-06T01:04:30;15.90;75.30
13992;DHT22;7070;53.586;9.692;2023-08-06T01:07:05;15.90;75.30
13992;DHT22;7070;53.586;9.692;2023-08-06T01:09:44;15.90;75.40
13992;DHT22;7070;53.586;9.692;2023-08-06T01:12:24;15.90;75.60
13992;DHT22;7070;53.586;9.692;2023-08-06T01:14:57;15.90;75.80
13992;DHT22;7070;53.586;9.692;2023-08-06T01:17:28;15.80;75.60
13992;DHT22;7070;53.586;9.692;2023-08-06T01:19:56;15.90;75.70
13992;DHT22;7070;53.586;9.692;2023-08-06T01:22:24;15.90;75.80
13992;DHT22;7070;53.586;9.692;2023-08-06T01:24:52;15.90;75.90
13992;DHT22;7070;53.586;9.692;2023-08-06T01:27:24;15.90;75.80
13992;DHT22;7070;53.586;9.692;2023-08-06T01:30:00;15.90;75.90
13992;DHT22;7070;53.586;9.692;2023-08-06T01:32:29;15.90;75.90
13992;DHT22;7070;53.586;9.692;2023-08-06T01:35:00;15.90;76.00
13992;DHT22;7070;53.586;9.692;2023-08-06T01:37:30;15.90;76.10
13992;DHT22;7070;53.586;9.692;2023-08-06T01:39:57;15.90;76.10
13992;DHT22;7070;53.586;9.692;2023-08-06T01:42:24;15.90;76.10
13992;DHT22;7070;53.586;9.692;2023-08-06T01:44:51;15.90;76.30
13992;DHT22;7070;53.586;9.692;2023-08-06T01:47:18;15.90;76.30
13992;DHT22;7070;53.586;9.692;2023-08-06T01:49:45;15.90;76.40
13992;DHT22;7070;53.586;9.692;2023-08-06T01:52:12;15.90;76.40
13992;DHT22;7070;53.586;9.692;2023-08-06T01:54:40;15.90;76.50
13992;DHT22;7070;53.586;9.692;2023-08-06T01:57:07;15.90;76.50
13992;DHT22;7070;53.586;9.692;2023-08-06T01:59:33;16.00;76.70
13992;DHT22;7070;53.586;9.692;2023-08-06T02:02:00;16.00;76.70
13992;DHT22;7070;53.586;9.692;2023-08-06T02:04:27;15.90;76.70
13992;DHT22;7070;53.586;9.692;2023-08-06T02:06:54;16.00;76.90
13992;DHT22;7070;53.586;9.692;2023-08-06T02:09:21;16.00;76.80
13992;DHT22;7070;53.586;9.692;2023-08-06T02:11:49;15.90;76.90
13992;DHT22;7070;53.586;9.692;2023-08-06T02:14:16;16.00;76.90
13992;DHT22;7070;53.586;9.692;2023-08-06T02:16:42;16.00;77.00
13992;DHT22;7070;53.586;9.692;2023-08-06T02:19:09;16.00;77.10
13992;DHT22;7070;53.586;9.692;2023-08-06T02:21:36;16.00;77.00
13992;DHT22;7070;53.586;9.692;2023-08-06T02:24:03;15.90;76.40
13992;DHT22;7070;53.586;9.692;2023-08-06T02:26:30;16.00;77.10
13992;DHT22;7070;53.586;9.692;2023-08-06T02:28:58;16.00;77.20
13992;DHT22;7070;53.586;9.692;2023-08-06T02:31:25;16.00;77.30
13992;DHT22;7070;53.586;9.692;2023-08-06T02:33:52;16.00;77.30
13992;DHT22;7070;53.586;9.692;2023-08-06T02:36:19;16.00;77.30
13992;DHT22;7070;53.586;9.692;2023-08-06T02:38:46;16.00;77.40
13992;DHT22;7070;53.586;9.692;2023-08-06T02:41:13;16.00;77.40
13992;DHT22;7070;53.586;9.692;2023-08-06T02:43:40;15.90;77.30
13992;DHT22;7070;53.586;9.692;2023-08-06T02:46:08;15.90;77.40
13992;DHT22;7070;53.586;9.692;2023-08-06T02:48:35;16.00;77.40
13992;DHT22;7070;53.586;9.692;2023-08-06T02:51:02;16.00;77.50
13992;DHT22;7070;53.586;9.692;2023-08-06T02:53:29;16.00;77.50
13992;DHT22;7070;53.586;9.692;2023-08-06T02:55:57;15.90;77.40
13992;DHT22;7070;53.586;9.692;2023-08-06T02:58:24;15.90;77.60
13992;DHT22;7070;53.586;9.692;2023-08-06T03:01:01;15.90;77.70
13992;DHT22;7070;53.586;9.692;2023-08-06T03:03:29;15.90;77.80
13992;DHT22;7070;53.586;9.692;2023-08-06T03:05:56;15.90;77.80
13992;DHT22;7070;53.586;9.692;2023-08-06T03:08:24;15.90;77.80
13992;DHT22;7070;53.586;9.692;2023-08-06T03:10:51;15.90;77.90
13992;DHT22;7070;53.586;9.692;2023-08-06T03:13:19;15.90;78.00
13992;DHT22;7070;53.586;9.692;2023-08-06T03:15:52;15.90;78.10
13992;DHT22;7070;53.586;9.692;2023-08-06T03:18:20;15.90;78.10
13992;DHT22;7070;53.586;9.692;2023-08-06T03:20:48;15.90;78.20
13992;DHT22;7070;53.586;9.692;2023-08-06T03:23:15;16.00;78.30
13992;DHT22;7070;53.586;9.692;2023-08-06T03:25:42;16.00;78.30
13992;DHT22;7070;53.586;9.692;2023-08-06T03:28:09;16.00;78.30
13992;DHT22;7070;53.586;9.692;2023-08-06T03:30:36;15.90;78.30
13992;DHT22;7070;53.586;9.692;2023-08-06T03:33:03;15.90;78.20
13992;DHT22;7070;53.586;9.692;2023-08-06T03:35:30;16.00;78.30
13992;DHT22;7070;53.586;9.692;2023-08-06T03:37:58;16.00;78.30
13992;DHT22;7070;53.586;9.692;2023-08-06T03:40:25;15.90;78.30
13992;DHT22;7070;53.586;9.692;2023-08-06T03:42:52;16.00;78.50
13992;DHT22;7070;53.586;9.692;2023-08-06T03:45:18;15.90;78.30
13992;DHT22;7070;53.586;9.692;2023-08-06T03:47:45;16.00;78.40
13992;DHT22;7070;53.586;9.692;2023-08-06T03:50:12;16.00;78.60
13992;DHT22;7070;53.586;9.692;2023-08-06T03:52:39;15.90;78.50
13992;DHT22;7070;53.586;9.692;2023-08-06T03:55:08;15.90;78.50
13992;DHT22;7070;53.586;9.692;2023-08-06T03:57:34;15.90;78.60
13992;DHT22;7070;53.586;9.692;2023-08-06T04:00:02;15.90;78.60
13992;DHT22;7070;53.586;9.692;2023-08-06T04:02:29;15.90;78.60
13992;DHT22;7070;53.586;9.692;2023-08-06T04:04:56;15.90;78.70
13992;DHT22;7070;53.586;9.692;2023-08-06T04:07:24;15.90;78.80
13992;DHT22;7070;53.586;9.692;2023-08-06T04:09:53;15.90;78.70
13992;DHT22;7070;53.586;9.692;2023-08-06T04:12:21;15.90;78.80
13992;DHT22;7070;53.586;9.692;2023-08-06T04:14:49;15.90;78.80
13992;DHT22;7070;53.586;9.692;2023-08-06T04:17:16;15.90;78.80
13992;DHT22;7070;53.586;9.692;2023-08-06T04:19:46;15.90;78.90
13992;DHT22;7070;53.586;9.692;2023-08-06T04:22:13;15.90;78.90
13992;DHT22;7070;53.586;9.692;2023-08-06T04:24:40;15.90;79.00
13992;DHT22;7070;53.586;9.692;2023-08-06T04:27:07;16.00;79.10
13992;DHT22;7070;53.586;9.692;2023-08-06T04:29:36;15.90;79.00
13992;DHT22;7070;53.586;9.692;2023-08-06T04:32:05;15.90;80.00
13992;DHT22;7070;53.586;9.692;2023-08-06T04:34:32;15.90;79.20
13992;DHT22;7070;53.586;9.692;2023-08-06T04:36:59;15.90;79.30
13992;DHT22;7070;53.586;9.692;2023-08-06T04:39:26;16.00;79.50
13992;DHT22;7070;53.586;9.692;2023-08-06T04:41:54;16.00;79.60
13992;DHT22;7070;53.586;9.692;2023-08-06T04:44:21;15.90;79.50
13992;DHT22;7070;53.586;9.692;2023-08-06T04:46:50;16.00;79.70
13992;DHT22;7070;53.586;9.692;2023-08-06T04:49:17;16.00;79.70
13992;DHT22;7070;53.586;9.692;2023-08-06T04:51:44;16.00;79.70
13992;DHT22;7070;53.586;9.692;2023-08-06T04:54:10;16.10;79.80
13992;DHT22;7070;53.586;9.692;2023-08-06T04:56:37;16.10;79.80
13992;DHT22;7070;53.586;9.692;2023-08-06T04:59:04;16.10;79.90
13992;DHT22;7070;53.586;9.692;2023-08-06T05:01:31;16.10;79.90
13992;DHT22;7070;53.586;9.692;2023-08-06T05:03:59;16.10;79.90
13992;DHT22;7070;53.586;9.692;2023-08-06T05:06:26;16.10;80.00
13992;DHT22;7070;53.586;9.692;2023-08-06T05:08:53;16.20;80.10
13992;DHT22;7070;53.586;9.692;2023-08-06T05:11:20;16.20;80.10
13992;DHT22;7070;53.586;9.692;2023-08-06T05:13:47;16.20;80.10
13992;DHT22;7070;53.586;9.692;2023-08-06T05:16:13;16.30;80.30
13992;DHT22;7070;53.586;9.692;2023-08-06T05:18:40;16.30;80.30
13992;DHT22;7070;53.586;9.692;2023-08-06T05:21:08;16.30;80.40
13992;DHT22;7070;53.586;9.692;2023-08-06T05:23:35;16.30;80.40
13992;DHT22;7070;53.586;9.692;2023-08-06T05:26:02;16.30;80.50
13992;DHT22;7070;53.586;9.692;2023-08-06T05:28:29;16.30;80.50
13992;DHT22;7070;53.586;9.692;2023-08-06T05:30:56;16.40;80.60
13992;DHT22;7070;53.586;9.692;2023-08-06T05:33:23;16.40;80.60
13992;DHT22;7070;53.586;9.692;2023-08-06T05:35:49;16.50;80.70
13992;DHT22;7070;53.586;9.692;2023-08-06T05:38:18;16.40;80.60
13992;DHT22;7070;53.586;9.692;2023-08-06T05:40:45;16.50;80.80
13992;DHT22;7070;53.586;9.692;2023-08-06T05:43:11;16.50;81.00
13992;DHT22;7070;53.586;9.692;2023-08-06T05:45:38;16.60;81.10
13992;DHT22;7070;53.586;9.692;2023-08-06T05:48:05;16.60;81.20
13992;DHT22;7070;53.586;9.692;2023-08-06T05:50:32;16.60;81.30
13992;DHT22;7070;53.586;9.692;2023-08-06T05:52:59;16.70;81.50
13992;DHT22;7070;53.586;9.692;2023-08-06T05:55:27;16.80;81.70
13992;DHT22;7070;53.586;9.692;2023-08-06T05:57:54;16.90;81.80
13992;DHT22;7070;53.586;9.692;2023-08-06T06:00:21;17.00;82.00
13992;DHT22;7070;53.586;9.692;2023-08-06T06:02:48;17.00;82.00
13992;DHT22;7070;53.586;9.692;2023-08-06T06:05:15;17.10;82.10
13992;DHT22;7070;53.586;9.692;2023-08-06T06:07:42;17.20;82.30
13992;DHT22;7070;53.586;9.692;2023-08-06T06:10:09;17.30;82.50
13992;DHT22;7070;53.586;9.692;2023-08-06T06:12:41;17.30;82.50
13992;DHT22;7070;53.586;9.692;2023-08-06T06:15:08;17.50;82.80
13992;DHT22;7070;53.586;9.692;2023-08-06T06:17:35;17.50;82.80
13992;DHT22;7070;53.586;9.692;2023-08-06T06:20:03;17.70;83.00
13992;DHT22;7070;53.586;9.692;2023-08-06T06:22:30;17.70;82.80
13992;DHT22;7070;53.586;9.692;2023-08-06T06:24:57;17.80;82.90
13992;DHT22;7070;53.586;9.692;2023-08-06T06:27:24;17.90;82.90
13992;DHT22;7070;53.586;9.692;2023-08-06T06:29:52;18.00;83.10
13992;DHT22;7070;53.586;9.692;2023-08-06T06:32:20;18.00;83.90
13992;DHT22;7070;53.586;9.692;2023-08-06T06:34:47;18.10;83.10
13992;DHT22;7070;53.586;9.692;2023-08-06T06:37:14;18.20;83.10
13992;DHT22;7070;53.586;9.692;2023-08-06T06:39:41;18.30;83.20
13992;DHT22;7070;53.586;9.692;2023-08-06T06:42:07;18.30;83.20
13992;DHT22;7070;53.586;9.692;2023-08-06T06:44:34;18.40;83.30
13992;DHT22;7070;53.586;9.692;2023-08-06T06:47:03;18.40;83.30
13992;DHT22;7070;53.586;9.692;2023-08-06T06:49:30;18.50;83.20
13992;DHT22;7070;53.586;9.692;2023-08-06T06:51:57;18.50;83.20
13992;DHT22;7070;53.586;9.692;2023-08-06T06:54:23;18.60;83.20
13992;DHT22;7070;53.586;9.692;2023-08-06T06:56:50;18.60;83.20
13992;DHT22;7070;53.586;9.692;2023-08-06T06:59:17;18.70;83.30
13992;DHT22;7070;53.586;9.692;2023-08-06T07:01:44;18.70;83.30
13992;DHT22;7070;53.586;9.692;2023-08-06T07:04:12;18.70;83.70
13992;DHT22;7070;53.586;9.692;2023-08-06T07:06:39;18.80;83.50
13992;DHT22;7070;53.586;9.692;2023-08-06T07:09:06;18.80;83.40
13992;DHT22;7070;53.586;9.692;2023-08-06T07:11:33;18.80;83.30
13992;DHT22;7070;53.586;9.692;2023-08-06T07:14:00;18.90;83.50
13992;DHT22;7070;53.586;9.692;2023-08-06T07:16:27;18.90;83.50
13992;DHT22;7070;53.586;9.692;2023-08-06T07:18:54;19.00;83.70
13992;DHT22;7070;53.586;9.692;2023-08-06T07:21:22;19.00;83.90
13992;DHT22;7070;53.586;9.692;2023-08-06T07:23:49;19.00;84.60
13992;DHT22;7070;53.586;9.692;2023-08-06T07:26:16;19.10;84.10
13992;DHT22;7070;53.586;9.692;2023-08-06T07:28:43;19.20;84.40
13992;DHT22;7070;53.586;9.692;2023-08-06T07:31:10;19.30;84.60
13992;DHT22;7070;53.586;9.692;2023-08-06T07:33:37;19.40;84.80
13992;DHT22;7070;53.586;9.692;2023-08-06T07:36:08;19.50;84.90
13992;DHT22;7070;53.586;9.692;2023-08-06T07:38:37;19.50;85.00
13992;DHT22;7070;53.586;9.692;2023-08-06T07:41:04;19.70;86.00
13992;DHT22;7070;53.586;9.692;2023-08-06T07:43:31;19.80;85.30
13992;DHT22;7070;53.586;9.692;2023-08-06T07:45:58;19.90;85.30
13992;DHT22;7070;53.586;9.692;2023-08-06T07:48:26;20.00;85.40
13992;DHT22;7070;53.586;9.692;2023-08-06T07:50:53;20.10;85.60
13992;DHT22;7070;53.586;9.692;2023-08-06T07:53:20;20.20;85.70
13992;DHT22;7070;53.586;9.692;2023-08-06T07:55:50;20.40;85.80
13992;DHT22;7070;53.586;9.692;2023-08-06T07:58:17;20.50;85.60
13992;DHT22;7070;53.586;9.692;2023-08-06T08:00:44;20.50;85.50
13992;DHT22;7070;53.586;9.692;2023-08-06T08:03:11;20.50;86.10
13992;DHT22;7070;53.586;9.692;2023-08-06T08:05:39;20.60;85.40
13992;DHT22;7070;53.586;9.692;2023-08-06T08:08:06;20.60;85.30
13992;DHT22;7070;53.586;9.692;2023-08-06T08:10:33;20.70;85.30
13992;DHT22;7070;53.586;9.692;2023-08-06T08:13:01;20.80;85.50
13992;DHT22;7070;53.586;9.692;2023-08-06T08:15:30;20.90;85.80
13992;DHT22;7070;53.586;9.692;2023-08-06T08:17:57;20.90;85.90
13992;DHT22;7070;53.586;9.692;2023-08-06T08:20:24;21.00;86.10
13992;DHT22;7070;53.586;9.692;2023-08-06T08:22:53;21.10;86.30
13992;DHT22;7070;53.586;9.692;2023-08-06T08:25:20;21.20;86.40
13992;DHT22;7070;53.586;9.692;2023-08-06T08:27:46;21.30;86.50
13992;DHT22;7070;53.586;9.692;2023-08-06T08:30:15;21.40;86.60
13992;DHT22;7070;53.586;9.692;2023-08-06T08:32:41;21.50;86.20
13992;DHT22;7070;53.586;9.692;2023-08-06T08:35:08;21.50;86.10
13992;DHT22;7070;53.586;9.692;2023-08-06T08:37:38;21.70;86.30
13992;DHT22;7070;53.586;9.692;2023-08-06T08:40:06;21.70;86.00
13992;DHT22;7070;53.586;9.692;2023-08-06T08:42:33;21.70;85.90
13992;DHT22;7070;53.586;9.692;2023-08-06T08:45:00;21.80;86.10
13992;DHT22;7070;53.586;9.692;2023-08-06T08:47:28;21.80;86.30
13992;DHT22;7070;53.586;9.692;2023-08-06T08:49:56;21.90;86.50
13992;DHT22;7070;53.586;9.692;2023-08-06T08:52:24;21.90;86.00
13992;DHT22;7070;53.586;9.692;2023-08-06T08:54:51;22.00;86.00
13992;DHT22;7070;53.586;9.692;2023-08-06T08:57:20;22.00;86.10
13992;DHT22;7070;53.586;9.692;2023-08-06T08:59:47;22.00;86.20
13992;DHT22;7070;53.586;9.692;2023-08-06T09:02:15;22.10;86.90
13992;DHT22;7070;53.586;9.692;2023-08-06T09:04:44;22.00;86.10
13992;DHT22;7070;53.586;9.692;2023-08-06T09:07:17;22.10;86.30
13992;DHT22;7070;53.586;9.692;2023-08-06T09:09:48;22.10;86.30
13992;DHT22;7070;53.586;9.692;2023-08-06T09:12:16;22.10;86.20
13992;DHT22;7070;53.586;9.692;2023-08-06T09:14:43;22.10;85.90
13992;DHT22;7070;53.586;9.692;2023-08-06T09:17:10;22.10;85.90
13992;DHT22;7070;53.586;9.692;2023-08-06T09:19:37;22.10;85.90
13992;DHT22;7070;53.586;9.692;2023-08-06T09:22:05;22.10;86.20
13992;DHT22;7070;53.586;9.692;2023-08-06T09:24:38;22.10;86.20
13992;DHT22;7070;53.586;9.692;2023-08-06T09:27:11;22.10;86.10
13992;DHT22;7070;53.586;9.692;2023-08-06T09:29:40;22.10;85.90
13992;DHT22;7070;53.586;9.692;2023-08-06T09:32:08;22.10;86.10
13992;DHT22;7070;53.586;9.692;2023-08-06T09:34:35;22.10;86.10
13992;DHT22;7070;53.586;9.692;2023-08-06T09:37:07;22.10;86.10
13992;DHT22;7070;53.586;9.692;2023-08-06T09:39:35;22.10;86.40
13992;DHT22;7070;53.586;9.692;2023-08-06T09:42:02;22.10;86.60
13992;DHT22;7070;53.586;9.692;2023-08-06T09:44:31;22.10;86.80
13992;DHT22;7070;53.586;9.692;2023-08-06T09:46:59;22.20;87.00
13992;DHT22;7070;53.586;9.692;2023-08-06T09:49:27;22.30;87.20
13992;DHT22;7070;53.586;9.692;2023-08-06T09:51:54;22.30;87.30
13992;DHT22;7070;53.586;9.692;2023-08-06T09:54:26;22.40;87.70
13992;DHT22;7070;53.586;9.692;2023-08-06T09:56:54;22.50;87.40
13992;DHT22;7070;53.586;9.692;2023-08-06T09:59:22;22.60;87.10
13992;DHT22;7070;53.586;9.692;2023-08-06T10:01:49;22.60;87.20
13992;DHT22;7070;53.586;9.692;2023-08-06T10:04:16;22.80;87.00
13992;DHT22;7070;53.586;9.692;2023-08-06T10:06:46;22.80;86.90
13992;DHT22;7070;53.586;9.692;2023-08-06T10:09:14;22.80;86.90
13992;DHT22;7070;53.586;9.692;2023-08-06T10:11:42;22.90;86.70
13992;DHT22;7070;53.586;9.692;2023-08-06T10:14:15;23.00;86.80
13992;DHT22;7070;53.586;9.692;2023-08-06T10:16:43;23.00;86.40
13992;DHT22;7070;53.586;9.692;2023-08-06T10:19:11;23.00;86.00
13992;DHT22;7070;53.586;9.692;2023-08-06T10:21:39;23.10;85.70
13992;DHT22;7070;53.586;9.692;2023-08-06T10:24:07;23.10;85.80
13992;DHT22;7070;53.586;9.692;2023-08-06T10:26:36;23.10;85.70
13992;DHT22;7070;53.586;9.692;2023-08-06T10:29:35;23.10;85.60
13992;DHT22;7070;53.586;9.692;2023-08-06T10:32:03;23.10;84.70
13992;DHT22;7070;53.586;9.692;2023-08-06T10:34:54;23.20;84.90
13992;DHT22;7070;53.586;9.692;2023-08-06T10:37:22;23.10;83.50
13992;DHT22;7070;53.586;9.692;2023-08-06T10:39:50;23.10;84.60
13992;DHT22;7070;53.586;9.692;2023-08-06T10:42:21;23.10;84.50
13992;DHT22;7070;53.586;9.692;2023-08-06T10:45:18;23.10;84.70
13992;DHT22;7070;53.586;9.692;2023-08-06T10:47:45;23.10;84.00
13992;DHT22;7070;53.586;9.692;2023-08-06T10:50:13;23.10;84.50
13992;DHT22;7070;53.586;9.692;2023-08-06T10:52:42;23.10;83.80
13992;DHT22;7070;53.586;9.692;2023-08-06T10:55:09;23.10;83.70
13992;DHT22;7070;53.586;9.692;2023-08-06T10:57:36;23.10;83.70
13992;DHT22;7070;53.586;9.692;2023-08-06T11:00:04;23.10;83.40
13992;DHT22;7070;53.586;9.692;2023-08-06T11:02:35;23.10;83.60
13992;DHT22;7070;53.586;9.692;2023-08-06T11:05:06;23.10;83.10
13992;DHT22;7070;53.586;9.692;2023-08-06T11:07:34;23.00;82.90
13992;DHT22;7070;53.586;9.692;2023-08-06T11:10:02;23.00;83.20
13992;DHT22;7070;53.586;9.692;2023-08-06T11:12:30;23.00;83.30
13992;DHT22;7070;53.586;9.692;2023-08-06T11:14:57;23.00;84.20
13992;DHT22;7070;53.586;9.692;2023-08-06T11:17:24;23.00;83.40
13992;DHT22;7070;53.586;9.692;2023-08-06T11:19:52;23.10;83.30
13992;DHT22;7070;53.586;9.692;2023-08-06T11:22:20;23.10;83.50
13992;DHT22;7070;53.586;9.692;2023-08-06T11:24:47;23.20;83.20
13992;DHT22;7070;53.586;9.692;2023-08-06T11:27:15;23.20;82.90
13992;DHT22;7070;53.586;9.692;2023-08-06T11:29:42;23.20;83.20
13992;DHT22;7070;53.586;9.692;2023-08-06T11:32:10;23.20;84.00
13992;DHT22;7070;53.586;9.692;2023-08-06T11:34:38;23.30;83.40
13992;DHT22;7070;53.586;9.692;2023-08-06T11:37:07;23.30;83.30
13992;DHT22;7070;53.586;9.692;2023-08-06T11:39:36;23.40;83.20
13992;DHT22;7070;53.586;9.692;2023-08-06T11:42:04;23.50;83.10
13992;DHT22;7070;53.586;9.692;2023-08-06T11:44:33;23.60;82.70
13992;DHT22;7070;53.586;9.692;2023-08-06T11:47:02;23.60;82.50
13992;DHT22;7070;53.586;9.692;2023-08-06T11:49:41;23.70;82.60
13992;DHT22;7070;53.586;9.692;2023-08-06T11:52:18;23.70;82.10
13992;DHT22;7070;53.586;9.692;2023-08-06T11:55:00;23.70;81.60
13992;DHT22;7070;53.586;9.692;2023-08-06T11:57:29;23.70;81.40
13992;DHT22;7070;53.586;9.692;2023-08-06T12:00:00;23.80;82.10
13992;DHT22;7070;53.586;9.692;2023-08-06T12:02:31;23.80;82.20
13992;DHT22;7070;53.586;9.692;2023-08-06T12:05:01;23.90;82.50
13992;DHT22;7070;53.586;9.692;2023-08-06T12:07:31;24.00;83.40
13992;DHT22;7070;53.586;9.692;2023-08-06T12:09:59;24.10;82.70
13992;DHT22;7070;53.586;9.692;2023-08-06T12:12:26;24.20;82.30
13992;DHT22;7070;53.586;9.692;2023-08-06T12:14:53;24.30;81.80
13992;DHT22;7070;53.586;9.692;2023-08-06T12:17:20;24.40;82.00
13992;DHT22;7070;53.586;9.692;2023-08-06T12:19:47;24.50;81.70
13992;DHT22;7070;53.586;9.692;2023-08-06T12:22:14;24.50;81.50
13992;DHT22;7070;53.586;9.692;2023-08-06T12:24:43;24.50;80.90
13992;DHT22;7070;53.586;9.692;2023-08-06T12:27:10;24.60;80.30
13992;DHT22;7070;53.586;9.692;2023-08-06T12:29:40;24.50;79.50
13992;DHT22;7070;53.586;9.692;2023-08-06T12:32:07;24.40;78.90
13992;DHT22;7070;53.586;9.692;2023-08-06T12:34:34;24.40;78.60
13992;DHT22;7070;53.586;9.692;2023-08-06T12:37:02;24.20;78.20
13992;DHT22;7070;53.586;9.692;2023-08-06T12:39:28;24.10;78.20
13992;DHT22;7070;53.586;9.692;2023-08-06T12:41:58;24.00;78.30
13992;DHT22;7070;53.586;9.692;2023-08-06T12:44:25;23.80;78.20
13992;DHT22;7070;53.586;9.692;2023-08-06T12:46:52;23.70;78.30
13992;DHT22;7070;53.586;9.692;2023-08-06T12:49:19;23.60;78.60
13992;DHT22;7070;53.586;9.692;2023-08-06T12:51:47;23.50;78.70
13992;DHT22;7070;53.586;9.692;2023-08-06T12:54:14;23.50;78.50
13992;DHT22;7070;53.586;9.692;2023-08-06T12:56:41;23.50;78.30
13992;DHT22;7070;53.586;9.692;2023-08-06T12:59:09;23.40;78.50
13992;DHT22;7070;53.586;9.692;2023-08-06T13:01:37;23.40;78.60
13992;DHT22;7070;53.586;9.692;2023-08-06T13:04:04;23.40;78.70
13992;DHT22;7070;53.586;9.692;2023-08-06T13:06:31;23.30;78.50
13992;DHT22;7070;53.586;9.692;2023-08-06T13:09:01;23.30;78.60
13992;DHT22;7070;53.586;9.692;2023-08-06T13:11:29;23.30;78.80
13992;DHT22;7070;53.586;9.692;2023-08-06T13:13:58;23.30;79.70
13992;DHT22;7070;53.586;9.692;2023-08-06T13:16:27;23.30;79.70
13992;DHT22;7070;53.586;9.692;2023-08-06T13:18:54;23.40;78.80
13992;DHT22;7070;53.586;9.692;2023-08-06T13:21:21;23.30;78.30
13992;DHT22;7070;53.586;9.692;2023-08-06T13:23:48;23.30;78.00
13992;DHT22;7070;53.586;9.692;2023-08-06T13:26:15;23.30;78.00
13992;DHT22;7070;53.586;9.692;2023-08-06T13:28:42;23.30;78.00
13992;DHT22;7070;53.586;9.692;2023-08-06T13:31:09;23.20;77.90
13992;DHT22;7070;53.586;9.692;2023-08-06T13:33:38;23.20;78.10
13992;DHT22;7070;53.586;9.692;2023-08-06T13:36:05;23.10;78.30
13992;DHT22;7070;53.586;9.692;2023-08-06T13:38:31;23.20;78.30
13992;DHT22;7070;53.586;9.692;2023-08-06T13:40:58;23.10;77.90
13992;DHT22;7070;53.586;9.692;2023-08-06T13:43:25;23.10;77.30
13992;DHT22;7070;53.586;9.692;2023-08-06T13:45:53;23.00;77.20
13992;DHT22;7070;53.586;9.692;2023-08-06T13:48:19;22.90;76.70
13992;DHT22;7070;53.586;9.692;2023-08-06T13:50:48;22.90;77.10
13992;DHT22;7070;53.586;9.692;2023-08-06T13:53:15;22.70;77.00
13992;DHT22;7070;53.586;9.692;2023-08-06T13:55:41;22.60;77.30
13992;DHT22;7070;53.586;9.692;2023-08-06T13:58:08;22.60;77.40
13992;DHT22;7070;53.586;9.692;2023-08-06T14:00:35;22.60;78.50
13992;DHT22;7070;53.586;9.692;2023-08-06T14:03:02;22.60;78.80
13992;DHT22;7070;53.586;9.692;2023-08-06T14:05:29;22.50;77.90
13992;DHT22;7070;53.586;9.692;2023-08-06T14:07:58;22.60;77.80
13992;DHT22;7070;53.586;9.692;2023-08-06T14:10:24;22.50;77.10
13992;DHT22;7070;53.586;9.692;2023-08-06T14:12:51;22.40;76.40
13992;DHT22;7070;53.586;9.692;2023-08-06T14:15:18;22.30;76.40
13992;DHT22;7070;53.586;9.692;2023-08-06T14:17:45;22.20;76.20
13992;DHT22;7070;53.586;9.692;2023-08-06T14:20:12;22.10;76.20
13992;DHT22;7070;53.586;9.692;2023-08-06T14:22:39;22.00;76.50
13992;DHT22;7070;53.586;9.692;2023-08-06T14:25:08;21.90;76.90
13992;DHT22;7070;53.586;9.692;2023-08-06T14:27:35;21.80;77.00
13992;DHT22;7070;53.586;9.692;2023-08-06T14:30:03;21.90;77.20
13992;DHT22;7070;53.586;9.692;2023-08-06T14:32:30;21.80;77.30
13992;DHT22;7070;53.586;9.692;2023-08-06T14:34:56;21.80;77.30
13992;DHT22;7070;53.586;9.692;2023-08-06T14:37:24;21.80;77.00
13992;DHT22;7070;53.586;9.692;2023-08-06T14:39:51;21.80;76.70
13992;DHT22;7070;53.586;9.692;2023-08-06T14:42:20;21.70;76.30
13992;DHT22;7070;53.586;9.692;2023-08-06T14:44:47;21.60;75.90
13992;DHT22;7070;53.586;9.692;2023-08-06T14:47:14;21.40;75.80
13992;DHT22;7070;53.586;9.692;2023-08-06T14:49:41;21.40;76.00
13992;DHT22;7070;53.586;9.692;2023-08-06T14:52:08;21.20;75.90
13992;DHT22;7070;53.586;9.692;2023-08-06T14:54:34;21.10;76.00
13992;DHT22;7070;53.586;9.692;2023-08-06T14:57:01;21.00;76.10
13992;DHT22;7070;53.586;9.692;2023-08-06T14:59:30;20.90;76.30
13992;DHT22;7070;53.586;9.692;2023-08-06T15:01:56;20.80;76.60
13992;DHT22;7070;53.586;9.692;2023-08-06T15:04:23;20.80;76.70
13992;DHT22;7070;53.586;9.692;2023-08-06T15:06:50;20.80;77.00
13992;DHT22;7070;53.586;9.692;2023-08-06T15:09:17;20.70;77.00
13992;DHT22;7070;53.586;9.692;2023-08-06T15:11:45;20.70;76.90
13992;DHT22;7070;53.586;9.692;2023-08-06T15:14:12;20.60;76.60
13992;DHT22;7070;53.586;9.692;2023-08-06T15:16:41;20.50;76.40
13992;DHT22;7070;53.586;9.692;2023-08-06T15:19:08;20.50;76.40
13992;DHT22;7070;53.586;9.692;2023-08-06T15:21:35;20.40;76.40
13992;DHT22;7070;53.586;9.692;2023-08-06T15:24:02;20.30;76.60
13992;DHT22;7070;53.586;9.692;2023-08-06T15:26:29;20.30;76.90
13992;DHT22;7070;53.586;9.692;2023-08-06T15:28:55;20.20;77.00
13992;DHT22;7070;53.586;9.692;2023-08-06T15:31:23;20.20;77.30
13992;DHT22;7070;53.586;9.692;2023-08-06T15:33:51;20.20;77.40
13992;DHT22;7070;53.586;9.692;2023-08-06T15:36:18;20.20;77.50
13992;DHT22;7070;53.586;9.692;2023-08-06T15:38:45;20.20;77.70
13992;DHT22;7070;53.586;9.692;2023-08-06T15:41:11;20.30;77.90
13992;DHT22;7070;53.586;9.692;2023-08-06T15:43:38;20.30;78.00
13992;DHT22;7070;53.586;9.692;2023-08-06T15:46:07;20.40;78.10
13992;DHT22;7070;53.586;9.692;2023-08-06T15:48:34;20.50;78.30